Time;durP1;ratioP1;P1;durP2;ratioP2;P2;SDS_P1;SDS_P2;PMS_P1;PMS_P2;Temp;Humidity;BMP_temperature;BMP_pressure;BME280_temperature;BME280_humidity;BME280_pressure;Samples;Min_cycle;Max_cycle;Signal;HPM_P1;HPM_P2
2023/08/24 03:43:46;;;;;;;;;;;;;;;-145.06;100.00;60892.56;4944730;22;19932;-91
2023/08/24 03:46:57;;;;;;;;;;;;;;;-145.06;100.00;60892.56;4839893;28;20219;-89
2023/08/24 03:49:37;;;;;;;;;;;;;;;-145.06;100.00;60892.56;4826627;28;19961;-89
2023/08/24 04:14:40;;;;;;;;;;;;;;;-145.06;100.00;60892.56;4862833;23;19936;-92
2023/08/24 04:17:19;;;;;;;;;;;;;;;-145.06;100.00;60892.56;4830855;28;19930;-92
2023/08/24 04:19:58;;;;;;;;;;;;;;;-145.06;100.00;60892.56;4830948;28;20159;-91
2023/08/24 04:22:40;;;;;;;;;;;;;;;-145.06;100.00;60892.56;4811651;28;20599;-92
2023/08/24 04:25:22;;;;;;;;;;;;;;;20.47;100.00;60892.56;4823804;28;19918;-90
2023/08/24 04:28:01;;;;;;;;;;;;;;;-145.06;100.00;60892.56;4811770;28;19922;-92
2023/08/24 04:30:40;;;;;;;;;;;;;;;-145.06;100.00;60892.56;4793717;28;20249;-94
2023/08/24 04:33:37;;;;;;;;;;;;;;;-145.06;100.00;60892.56;4808605;28;19930;-92
2023/08/24 04:36:18;;;;;;;;;;;;;;;-145.06;100.00;60892.56;4822578;28;19918;-93
2023/08/24 04:39:04;;;;;;;;;;;;;;;-145.06;100.00;60892.56;4810472;28;19917;-93
2023/08/24 04:45:07;;;;;;;;;;;;;;;-145.06;100.00;60892.56;4822352;28;19918;-93
2023/08/24 04:47:49;;;;;;;;;;;;;;;-145.06;100.00;60892.56;4825131;28;19914;-94
2023/08/24 04:50:28;;;;;;;;;;;;;;;-145.06;100.00;60892.56;4823428;28;19976;-90
2023/08/24 04:53:12;;;;;;;;;;;;;;;-145.06;100.00;60892.56;4826362;28;19914;-93
2023/08/24 04:56:03;;;;;;;;;;;;;;;-145.06;100.00;60892.56;4810352;28;19922;-92
2023/08/24 04:59:00;;;;;;;;;;;;;;;-145.06;100.00;60892.56;4815187;28;19913;-92
2023/08/24 05:01:40;;;;;;;;;;;;;;;-145.06;100.00;60892.56;4819616;28;20000;-93
2023/08/24 05:04:49;;;;;;;;;;;;;;;;;;;;;
2023/08/24 05:07:30;;;;;;;;;;;;;;;-145.06;100.00;60892.56;4812631;28;19914;-93
2023/08/24 05:10:13;;;;;;;;;;;;;;;-145.06;100.00;60892.56;4815539;28;19961;-93
2023/08/24 05:12:57;;;;;;;;;;;;;;;-145.06;100.00;60892.56;4823804;28;19914;-93
2023/08/24 05:15:36;;;;;;;;;;;;;;;-145.06;100.00;60892.56;4823595;28;19922;-92
2023/08/24 05:18:38;;;;;;;;;;;;;;;-145.06;100.00;60892.56;4809930;28;19918;-93
2023/08/24 05:21:20;;;;;;;;;;;;;;;-145.06;100.00;60892.56;4809796;28;19914;-93
2023/08/24 05:24:10;;;;;;;;;;;;;;;-145.06;100.00;60892.56;4823679;28;19917;-92
2023/08/24 05:27:11;;;;;;;;;;;;;;;-145.06;100.00;60892.56;4813500;28;19914;-92
2023/08/24 05:29:50;;;;;;;;;;;;;;;-145.06;100.00;60892.56;4826967;28;19956;-93
2023/08/24 05:32:29;;;;;;;;;;;;;;;-145.06;100.00;60892.56;4826908;28;19918;-93
2023/08/24 05:35:08;;;;;;;;;;;;;;;20.45;100.00;60892.56;4826864;28;19914;-92
2023/08/24 05:37:48;;;;;;;;;;;;;;;-145.06;100.00;60892.56;4822481;28;19941;-93
2023/08/24 05:40:29;;;;;;;;;;;;;;;-145.06;100.00;60892.56;4826590;28;19914;-93
2023/08/24 05:43:09;;;;;;;;;;;;;;;-145.06;100.00;60892.56;4817227;28;19914;-93
2023/08/24 05:45:48;;;;;;;;;;;;;;;-145.06;100.00;60892.56;4826438;28;19913;-93
2023/08/24 05:48:29;;;;;;;;;;;;;;;-145.06;100.00;60892.56;4812969;28;19914;-92
2023/08/24 05:51:09;;;;;;;;;;;;;;;-145.06;100.00;60892.56;4812707;28;20364;-93
2023/08/24 05:53:55;;;;;;;;;;;;;;;-145.06;100.00;60892.56;4812536;28;19914;-93
2023/08/24 05:56:34;;;;;;;;;;;;;;;-145.06;100.00;60892.56;4808293;28;19914;-93
2023/08/24 05:59:21;;;;;;;;;;;;;;;-145.06;100.00;60892.56;4808136;28;20320;-93
2023/08/24 06:02:00;;;;;;;;;;;;;;;-145.06;100.00;60892.56;4807636;28;19918;-92
2023/08/24 06:04:41;;;;;;;;;;;;;;;-145.06;100.00;60892.56;4813423;28;19914;-93
2023/08/24 06:07:21;;;;;;;;;;;;;;;-145.06;100.00;60892.56;4824325;28;19917;-91
2023/08/24 06:10:03;;;;;;;;;;;;;;;-145.06;100.00;60892.56;4845940;28;19914;-92
2023/08/24 06:12:42;;;;;;;;;;;;;;;-145.06;100.00;60892.56;4827568;28;19977;-92
2023/08/24 06:15:31;;;;;;;;;;;;;;;-145.06;100.00;60892.56;4826601;28;19968;-94
2023/08/24 06:18:24;;;;;;;;;;;;;;;-145.06;100.00;60892.56;4826578;28;19917;-95
2023/08/24 06:21:12;;;;;;;;;;;;;;;-145.06;100.00;60892.56;4812748;28;19914;-93
2023/08/24 06:24:00;;;;;;;;;;;;;;;-145.06;100.00;60892.56;4813647;28;19914;-93
2023/08/24 06:27:03;;;;;;;;;;;;;;;-145.06;100.00;60892.56;4813287;28;19914;-93
2023/08/24 06:32:34;;;;;;;;;;;;;;;-145.06;100.00;60892.56;5344608;22;19948;-93
2023/08/24 06:38:38;;;;;;;;;;;;;;;-145.06;100.00;60892.56;4864851;28;19913;-93
2023/08/24 06:41:56;;;;;;;;;;;;;;;-145.06;100.00;60892.56;4850414;28;20235;-93
2023/08/24 06:48:24;;;;;;;;;;;;;;;20.99;100.00;60892.56;4851579;28;19917;-93
2023/08/24 06:54:55;;;;;;;;;;;;;;;;;;;;;
2023/08/24 06:58:18;;;;;;;;;;;;;;;;;;;;;
2023/08/24 07:07:37;;;;;;;;;;;;;;;-145.06;100.00;60892.56;4863713;28;19913;-94
2023/08/24 07:17:28;;;;;;;;;;;;;;;-145.06;100.00;60892.56;4809535;28;19913;-94
2023/08/24 07:23:53;;;;;;;;;;;;;;;-145.06;100.00;60892.56;4812054;28;19914;-94
2023/08/24 07:27:03;;;;;;;;;;;;;;;-145.06;100.00;60892.56;4791770;28;19914;-93
2023/08/24 07:46:04;;;;;;;;;;;;;;;-145.06;100.00;60892.56;4821542;28;20324;-93
2023/08/24 08:03:05;;;;;;;;;;;;;;;-145.06;100.00;60892.56;4862445;28;19913;-94
2023/08/24 08:06:18;;;;;;;;;;;;;;;;;;;;;
2023/08/24 08:09:32;;;;;;;;;;;;;;;-145.06;100.00;60892.56;4827513;28;19918;-93
2023/08/24 08:58:15;;;;;;;;;;;;;;;;;;;;;
2023/08/24 16:25:18;;;;;;;;;;;;;;;-145.06;100.00;60892.56;5361705;22;19932;-92
2023/08/24 16:34:01;;;;;;;;;;;;;;;-145.06;100.00;60892.56;5035516;22;19984;-92
2023/08/24 16:37:16;;;;;;;;;;;;;;;-145.06;100.00;60892.56;4830185;28;19914;-93
2023/08/24 16:39:58;;;;;;;;;;;;;;;-145.06;100.00;60892.56;4757462;28;19915;-92
2023/08/24 16:42:46;;;;;;;;;;;;;;;-145.06;100.00;60892.56;4812608;28;19910;-91
2023/08/24 18:39:14;;;;;;;;;;;;;;;-145.06;100.00;60892.56;4820055;28;19956;-93
2023/08/24 20:28:36;;;;;;;;;;;;;;;-145.06;100.00;60892.56;4811334;28;20050;-91
2023/08/24 20:31:18;;;;;;;;;;;;;;;-145.06;100.00;60892.56;4824253;28;19918;-90
2023/08/24 20:34:08;;;;;;;;;;;;;;;-145.06;100.00;60892.56;4812432;28;19953;-91
2023/08/24 20:40:31;;;;;;;;;;;;;;;-145.06;100.00;60892.56;4769503;28;19946;-91
2023/08/24 20:46:37;;;;;;;;;;;;;;;-145.06;100.00;60892.56;4799732;28;19954;-91
2023/08/24 20:52:27;;;;;;;;;;;;;;;21.05;100.00;60892.56;4790758;28;19954;-91
2023/08/24 20:55:34;;;;;;;;;;;;;;;21.02;100.00;81616.88;4819159;28;19918;-90
2023/08/24 20:58:22;;;;;;;;;;;;;;;21.00;100.00;60892.56;4819379;28;20368;-92
2023/08/24 21:01:38;;;;;;;;;;;;;;;20.96;100.00;60892.56;4809033;28;19918;-91
2023/08/24 21:04:34;;;;;;;;;;;;;;;20.94;100.00;60892.56;4809725;28;19914;-90
2023/08/24 21:07:25;;;;;;;;;;;;;;;20.92;100.00;104794.97;4825703;28;19922;-90
2023/08/24 21:10:07;;;;;;;;;;;;;;;20.88;100.00;60892.56;4804568;28;20360;-91
2023/08/24 21:12:48;;;;;;;;;;;;;;;20.88;100.00;60892.56;4809250;28;20245;-91
2023/08/24 21:15:49;;;;;;;;;;;;;;;;;;;;;
2023/08/24 21:18:39;;;;;;;;;;;;;;;20.81;100.00;60892.56;4811519;28;19954;-91
2023/08/24 21:21:56;;;;;;;;;;;;;;;-145.06;100.00;60892.56;4809878;28;20356;-90
2023/08/24 21:24:45;;;;;;;;;;;;;;;-145.06;100.00;60892.56;4808555;28;19918;-90
2023/08/24 21:27:39;;;;;;;;;;;;;;;-145.06;100.00;60892.56;4802186;28;19922;-91
2023/08/24 21:30:50;;;;;;;;;;;;;;;-145.06;100.00;60892.56;4827885;28;20380;-92
2023/08/24 21:36:52;;;;;;;;;;;;;;;-145.06;100.00;60892.56;4816656;28;19918;-92
2023/08/24 21:39:41;;;;;;;;;;;;;;;-145.06;100.00;60892.56;4792971;28;20356;-92
2023/08/24 21:42:52;;;;;;;;;;;;;;;-145.06;100.00;60892.56;4809618;28;19918;-90
2023/08/24 21:45:33;;;;;;;;;;;;;;;-145.06;100.00;60892.56;4804370;28;19914;-91
2023/08/24 21:51:46;;;;;;;;;;;;;;;-145.06;100.00;60892.56;4789718;28;20254;-91
2023/08/24 21:54:53;;;;;;;;;;;;;;;-145.06;100.00;60892.56;4798084;28;19914;-92
2023/08/24 21:57:38;;;;;;;;;;;;;;;-145.06;100.00;60892.56;4820968;28;19997;-92
2023/08/24 22:00:29;;;;;;;;;;;;;;;-145.06;100.00;60892.56;4808237;28;20013;-94
2023/08/24 22:03:17;;;;;;;;;;;;;;;-145.06;100.00;60892.56;4790070;29;20384;-91
2023/08/24 22:06:00;;;;;;;;;;;;;;;-145.06;100.00;60892.56;4808260;28;19914;-93
2023/08/24 22:08:51;;;;;;;;;;;;;;;-145.06;100.00;60892.56;4815022;28;20056;-91
2023/08/24 22:18:53;;;;;;;;;;;;;;;-145.06;100.00;60892.56;4733844;29;19931;-91
2023/08/24 22:21:52;;;;;;;;;;;;;;;-145.06;100.00;60892.56;4732292;28;20313;-92
2023/08/24 22:24:33;;;;;;;;;;;;;;;-145.06;100.00;60892.56;4817877;28;19914;-93
2023/08/24 22:27:21;;;;;;;;;;;;;;;-145.06;100.00;60892.56;4807629;28;20368;-93
2023/08/24 22:30:19;;;;;;;;;;;;;;;-145.06;100.00;60892.56;4807824;28;19973;-92
2023/08/24 22:33:32;;;;;;;;;;;;;;;-145.06;100.00;60892.56;4811181;28;20277;-91
2023/08/24 22:36:17;;;;;;;;;;;;;;;-145.06;100.00;60892.56;4757078;28;19914;-93
2023/08/24 22:39:51;;;;;;;;;;;;;;;;;;;;;
2023/08/24 22:42:48;;;;;;;;;;;;;;;-145.06;100.00;60892.56;4748525;28;19916;-93
2023/08/24 22:45:52;;;;;;;;;;;;;;;-145.06;100.00;60892.56;4807272;28;20248;-92
2023/08/24 22:48:41;;;;;;;;;;;;;;;-145.06;100.00;60892.56;4813796;28;19940;-92
2023/08/24 22:55:08;;;;;;;;;;;;;;;-145.06;100.00;60892.56;4752736;29;19920;-90
2023/08/24 23:04:13;;;;;;;;;;;;;;;-145.06;100.00;60892.56;4697196;29;19916;-91
2023/08/24 23:07:04;;;;;;;;;;;;;;;-145.06;100.00;60892.56;4724590;29;19954;-91
2023/08/24 23:12:45;;;;;;;;;;;;;;;;;;;;;
2023/08/24 23:15:49;;;;;;;;;;;;;;;-145.06;100.00;60892.56;4816374;28;19918;-91
2023/08/24 23:18:43;;;;;;;;;;;;;;;-145.06;100.00;60892.56;4806036;28;19914;-92
2023/08/24 23:21:42;;;;;;;;;;;;;;;-145.06;100.00;60892.56;4811882;28;19952;-92
2023/08/24 23:24:37;;;;;;;;;;;;;;;;;;;;;
2023/08/24 23:27:29;;;;;;;;;;;;;;;;;;;;;
2023/08/24 23:40:30;;;;;;;;;;;;;;;-145.06;100.00;60892.56;4764542;29;19914;-92
2023/08/24 23:43:17;;;;;;;;;;;;;;;-145.06;100.00;60892.56;4772740;28;19922;-91
2023/08/24 23:46:10;;;;;;;;;;;;;;;-145.06;100.00;60892.56;4756255;29;20013;-91
2023/08/24 23:49:18;;;;;;;;;;;;;;;;;;;;;
2023/08/24 23:52:28;;;;;;;;;;;;;;;-145.06;100.00;60892.56;4803061;28;19922;-90
